Weather at Gunnlaugson Airport

Public forecast

Using degrees Celsius for public forecast. Weather courtesy of forecast.io.

Closest aviation weather report (METAR) to Gunnlaugson Airport

Closest report is Lethbridge County Airport, 4.2 nm (7.8 km) W.

2024/05/22 20:00 (retrieved 45 minutes ago)

CYQL 222000Z 06018G24KT 20SM BKN020 BKN100 12/06 A2978 RMK CU5AC2 SLP098 DENSITY ALT 3600FT

Closest aviation forecast (TAF) to Gunnlaugson Airport

Closest forecast is Lethbridge County Airport, 4.2 nm (7.8 km) W.

2024/05/22 20:33 Ammendment (retrieved 12 minutes ago)

TAF AMD TAF AMD CYQL 222030Z 2220/2306 06015G25KT P6SM BKN020 OVC100 TEMPO 2220/2221 SCT020 BKN100 FM222100 04012G22KT P6SM BKN040 OVC080 TEMPO 2221/2302 P6SM -SHRA OVC030 FM230200 04012KT P6SM BKN040 BECMG 2303/2305 FEW040 FM230500 02005KT P6SM SKC RMK NXT FCST BY 230000Z